Time;durP1;ratioP1;P1;durP2;ratioP2;P2;SDS_P1;SDS_P2;PMS_P1;PMS_P2;Temp;Humidity;BMP_temperature;BMP_pressure;BME280_temperature;BME280_humidity;BME280_pressure;Samples;Min_cycle;Max_cycle;Signal;HPM_P1;HPM_P2
2021/06/06 17:00:22;;;;;;;;;3.00;3.00;;;;;25.54;43.03;100389.44;5112137;27;45624;-59
2021/06/06 17:02:48;;;;;;;;;3.25;3.00;;;;;25.55;42.89;100390.28;5101517;27;45541;-59
2021/06/06 17:05:13;;;;;;;;;3.25;3.25;;;;;25.55;42.74;100387.56;5090320;27;50380;-58
2021/06/06 17:07:39;;;;;;;;;6.00;3.25;;;;;25.53;42.37;100388.53;5097959;27;45622;-60
2021/06/06 17:10:06;;;;;;;;;2.75;2.75;;;;;25.52;42.30;100389.53;5099593;27;46082;-59
2021/06/06 17:12:31;;;;;;;;;4.25;3.25;;;;;25.51;43.46;100390.50;5098533;27;45444;-59
2021/06/06 17:14:57;;;;;;;;;3.00;3.00;;;;;25.52;42.68;100394.97;5099018;27;45475;-59
2021/06/06 17:17:22;;;;;;;;;4.75;4.50;;;;;25.52;42.41;100392.25;4870022;27;45599;-58
2021/06/06 17:19:48;;;;;;;;;3.00;3.00;;;;;25.50;42.16;100386.03;5042252;28;45403;-62
2021/06/06 17:22:13;;;;;;;;;5.25;4.00;;;;;25.50;42.21;100394.19;5059415;27;59712;-63
2021/06/06 17:27:25;;;;;;;;;3.75;3.75;;;;;25.68;41.11;100367.47;5119113;27;45528;-78
2021/06/06 17:29:51;;;;;;;;;3.75;3.00;;;;;25.67;41.31;100386.69;4969167;28;45438;-86
2021/06/06 17:32:16;;;;;;;;;2.25;2.25;;;;;25.56;41.93;100397.47;4993558;28;46636;-84
2021/06/06 17:34:43;;;;;;;;;3.25;3.25;;;;;25.42;41.50;100390.31;5000576;28;46398;-85
2021/06/06 17:37:09;;;;;;;;;4.75;4.75;;;;;25.39;41.95;100399.56;5028399;28;55660;-85
2021/06/06 17:39:34;;;;;;;;;4.00;4.00;;;;;25.33;42.02;100402.69;4966925;28;45562;-84
2021/06/06 17:42:00;;;;;;;;;3.75;3.00;;;;;25.21;42.86;100397.13;4871453;28;561156;-85
2021/06/06 17:44:26;;;;;;;;;3.50;3.50;;;;;25.16;42.17;100402.06;4970728;27;45958;-86
2021/06/06 17:46:51;;;;;;;;;3.00;3.00;;;;;24.97;42.09;100402.47;5001573;28;45913;-85
2021/06/06 17:49:17;;;;;;;;;4.00;4.00;;;;;24.90;42.47;100412.03;5043563;28;45559;-86
2021/06/06 17:51:43;;;;;;;;;3.25;3.00;;;;;24.79;42.89;100414.63;5066968;28;45595;-86
2021/06/06 17:54:09;;;;;;;;;3.00;3.00;;;;;24.67;43.17;100408.13;5050992;28;45547;-86
2021/06/06 17:56:36;;;;;;;;;5.00;3.00;;;;;24.72;43.42;100417.75;5040261;28;46060;-86
2021/06/06 17:59:02;;;;;;;;;4.00;4.00;;;;;24.71;42.50;100412.41;5027062;28;45788;-86
2021/06/06 18:01:34;;;;;;;;;2.00;2.00;;;;;24.68;43.48;100405.34;5049153;28;45576;-85
2021/06/06 18:04:00;;;;;;;;;3.50;3.50;;;;;24.62;42.77;100415.75;5039966;28;45414;-86
2021/06/06 18:06:26;;;;;;;;;4.00;4.00;;;;;24.52;42.46;100408.22;5031005;28;46828;-85
2021/06/06 18:08:55;;;;;;;;;3.00;3.00;;;;;24.40;41.96;100407.16;5048384;28;45504;-81
2021/06/06 18:11:20;;;;;;;;;4.50;3.00;;;;;24.08;42.45;100384.88;5028691;28;45456;-86
2021/06/06 18:13:46;;;;;;;;;3.00;3.00;;;;;24.12;43.01;100417.16;5027784;28;45474;-80
2021/06/06 18:16:12;;;;;;;;;5.50;3.75;;;;;23.99;43.95;100405.34;5060249;28;45922;-86
2021/06/06 18:18:39;;;;;;;;;4.25;3.25;;;;;23.97;43.79;100413.63;5011998;28;45362;-87
2021/06/06 18:21:09;;;;;;;;;5.75;4.25;;;;;23.88;44.02;100419.63;5027910;28;45467;-81
2021/06/06 18:23:35;;;;;;;;;4.00;3.00;;;;;23.78;44.89;100408.47;5060412;28;45597;-83
2021/06/06 18:26:01;;;;;;;;;4.00;4.00;;;;;23.79;44.68;100414.78;5029324;28;46177;-85
2021/06/06 18:28:28;;;;;;;;;5.00;3.25;;;;;23.73;44.42;100420.59;5044291;28;45598;-86
2021/06/06 18:30:54;;;;;;;;;4.00;3.00;;;;;23.65;44.44;100415.69;5028031;28;45390;-85
2021/06/06 18:33:22;;;;;;;;;4.00;4.00;;;;;23.65;44.44;100423.81;5029366;28;45375;-84
2021/06/06 18:35:47;;;;;;;;;5.00;5.00;;;;;23.56;44.11;100421.66;5018277;27;45521;-78
2021/06/06 18:38:13;;;;;;;;;3.00;3.00;;;;;23.51;44.68;100424.66;5008411;28;45515;-85
2021/06/06 18:40:41;;;;;;;;;5.00;4.75;;;;;23.44;44.82;100420.59;5031162;28;45574;-85
2021/06/06 18:43:11;;;;;;;;;4.00;4.00;;;;;23.37;45.23;100425.53;4937873;28;45662;-85
2021/06/06 18:45:37;;;;;;;;;4.00;3.25;;;;;23.25;45.54;100408.19;4992732;28;47067;-86
2021/06/06 18:48:05;;;;;;;;;4.00;4.00;;;;;23.30;44.91;100425.06;5013405;28;45708;-86
2021/06/06 18:50:31;;;;;;;;;3.75;3.75;;;;;23.27;45.25;100422.56;4993602;28;45441;-87
2021/06/06 18:52:57;;;;;;;;;4.25;4.25;;;;;23.23;45.76;100426.41;4974425;28;45424;-86
2021/06/06 18:55:28;;;;;;;;;4.75;4.75;;;;;23.14;44.82;100424.22;5010046;28;46614;-87
2021/06/06 18:57:55;;;;;;;;;6.00;4.75;;;;;23.08;44.69;100417.34;4951554;28;45736;-83
2021/06/06 19:00:32;;;;;;;;;6.00;3.00;;;;;23.00;44.83;100422.38;5013129;28;45592;-86
2021/06/06 19:02:58;;;;;;;;;4.25;4.25;;;;;22.87;44.96;100430.34;5012171;28;45586;-88
2021/06/06 19:05:24;;;;;;;;;4.75;4.00;;;;;22.62;44.89;100399.31;5001255;28;47572;-81
2021/06/06 19:07:52;;;;;;;;;3.00;3.00;;;;;22.72;45.64;100433.03;5005758;28;45849;-86
2021/06/06 19:10:18;;;;;;;;;8.00;5.00;;;;;22.60;45.66;100420.19;4987478;27;45876;-87
2021/06/06 19:12:43;;;;;;;;;4.00;4.00;;;;;22.56;45.54;100427.66;5013186;28;45530;-86
2021/06/06 19:15:09;;;;;;;;;4.00;4.00;;;;;22.50;45.88;100427.13;5034372;28;52257;-86
2021/06/06 19:17:35;;;;;;;;;3.00;3.00;;;;;22.44;45.96;100426.50;5013642;28;45639;-84
2021/06/06 19:20:01;;;;;;;;;5.00;5.00;;;;;22.35;45.70;100423.44;5009504;28;45618;-86
2021/06/06 19:22:26;;;;;;;;;4.50;4.50;;;;;22.31;46.38;100443.56;5014416;28;45510;-85
2021/06/06 19:24:53;;;;;;;;;3.00;2.75;;;;;22.25;46.33;100439.34;5012537;28;46578;-87
2021/06/06 19:27:19;;;;;;;;;4.50;4.50;;;;;22.15;46.22;100436.31;5013066;28;45477;-87
2021/06/06 19:29:46;;;;;;;;;6.50;5.00;;;;;22.02;46.30;100435.25;5013816;28;45566;-87
2021/06/06 19:32:15;;;;;;;;;5.00;5.00;;;;;21.91;46.97;100430.44;5014096;28;45641;-86
2021/06/06 19:34:41;;;;;;;;;5.00;5.00;;;;;21.79;47.06;100430.19;5046990;28;47943;-85
2021/06/06 19:37:08;;;;;;;;;3.50;3.50;;;;;21.77;47.25;100426.69;5012955;28;45573;-87
2021/06/06 19:39:36;;;;;;;;;5.50;4.00;;;;;21.71;47.29;100439.69;5013839;28;45480;-86
2021/06/06 19:42:03;;;;;;;;;6.50;5.25;;;;;21.58;47.17;100439.47;5026757;27;45670;-86
2021/06/06 19:44:28;;;;;;;;;5.50;4.00;;;;;21.40;47.43;100428.66;5016317;28;46083;-86
2021/06/06 19:47:02;;;;;;;;;4.50;4.50;;;;;21.32;48.15;100445.28;5014352;28;45522;-85
2021/06/06 19:49:27;;;;;;;;;5.25;4.00;;;;;21.21;48.48;100447.72;5002894;28;46408;-84
2021/06/06 19:51:53;;;;;;;;;6.50;5.00;;;;;21.11;49.12;100439.19;5027235;28;45514;-77
2021/06/06 19:54:18;;;;;;;;;6.00;6.00;;;;;20.97;49.50;100434.53;4988801;28;47437;-83
2021/06/06 19:56:43;;;;;;;;;4.50;4.00;;;;;20.91;49.67;100437.53;5020655;28;45813;-83
2021/06/06 19:59:09;;;;;;;;;6.25;5.00;;;;;20.88;49.59;100451.22;5004467;28;54349;-85
2021/06/06 20:01:35;;;;;;;;;5.50;5.50;;;;;20.81;50.24;100449.78;5011396;28;45417;-84
2021/06/06 20:04:01;;;;;;;;;8.00;6.25;;;;;20.74;50.34;100455.50;5007045;28;45590;-85
2021/06/06 20:06:27;;;;;;;;;5.00;5.00;;;;;20.64;50.68;100462.28;5013441;28;45871;-86
2021/06/06 20:08:56;;;;;;;;;6.50;6.50;;;;;20.57;51.04;100458.16;5007489;28;45537;-81
2021/06/06 20:11:26;;;;;;;;;6.00;6.00;;;;;20.48;51.41;100454.06;5010364;28;45630;-83
2021/06/06 20:13:52;;;;;;;;;6.00;6.00;;;;;20.42;51.55;100473.31;5035916;28;45457;-84
2021/06/06 20:16:21;;;;;;;;;7.75;6.00;;;;;20.33;52.38;100474.63;5009934;28;45511;-84
2021/06/06 20:18:47;;;;;;;;;9.25;5.75;;;;;20.27;53.01;100473.09;5005398;28;50141;-85
2021/06/06 20:21:22;;;;;;;;;9.00;6.00;;;;;20.17;53.46;100469.09;5028381;28;45490;-83
2021/06/06 20:23:49;;;;;;;;;8.25;6.75;;;;;20.12;53.43;100466.59;5008789;28;46630;-84
2021/06/06 20:26:15;;;;;;;;;6.75;6.75;;;;;20.13;53.60;100480.97;5009743;28;46340;-83
2021/06/06 20:28:42;;;;;;;;;6.00;6.00;;;;;20.06;53.24;100471.44;5011308;28;45444;-83
2021/06/06 20:31:17;;;;;;;;;6.25;5.75;;;;;20.08;53.63;100491.13;5012104;28;45445;-84
2021/06/06 20:33:56;;;;;;;;;8.00;6.25;;;;;20.04;54.00;100493.13;5003923;28;45446;-84
2021/06/06 20:36:34;;;;;;;;;11.00;7.00;;;;;19.99;54.19;100497.84;5006918;28;45440;-84
2021/06/06 20:39:01;;;;;;;;;10.00;6.00;;;;;19.89;54.48;100494.72;5043968;28;45567;-85
2021/06/06 20:41:34;;;;;;;;;7.00;7.00;;;;;19.93;54.63;100503.53;4999993;28;45637;-85
2021/06/06 20:44:00;;;;;;;;;7.25;6.25;;;;;19.91;55.03;100500.91;5013079;28;46316;-84
2021/06/06 20:46:31;;;;;;;;;7.50;6.50;;;;;19.86;55.83;100500.25;5011433;28;45684;-84
2021/06/06 20:48:57;;;;;;;;;6.25;6.25;;;;;19.85;55.65;100502.97;5007506;28;45488;-84
2021/06/06 20:51:23;;;;;;;;;7.25;7.25;;;;;19.79;55.66;100513.13;5009860;28;45454;-80
2021/06/06 20:53:49;;;;;;;;;6.50;6.00;;;;;19.77;55.56;100515.00;5041570;28;48375;-82
2021/06/06 20:56:15;;;;;;;;;6.00;6.00;;;;;19.75;55.85;100518.72;5010151;28;45556;-83
2021/06/06 20:58:40;;;;;;;;;6.75;6.25;;;;;19.64;56.21;100506.59;5010848;28;45716;-87
2021/06/06 21:01:07;;;;;;;;;8.25;7.00;;;;;19.65;56.52;100523.66;5011036;28;55121;-87
2021/06/06 21:03:36;;;;;;;;;10.75;7.25;;;;;19.54;56.62;100507.94;5009029;28;46310;-84
2021/06/06 21:06:05;;;;;;;;;9.50;6.50;;;;;19.51;56.86;100517.06;4952337;27;45610;-84
2021/06/06 21:08:30;;;;;;;;;6.50;5.75;;;;;19.52;56.66;100523.34;5010233;28;45574;-83
2021/06/06 21:10:56;;;;;;;;;6.25;5.00;;;;;19.44;57.62;100520.97;4993584;28;45495;-84
2021/06/06 21:13:22;;;;;;;;;7.00;6.00;;;;;19.36;57.52;100512.34;5010989;28;47330;-84
2021/06/06 21:15:47;;;;;;;;;7.50;7.50;;;;;19.34;58.15;100525.91;4983781;28;45949;-82
2021/06/06 21:18:13;;;;;;;;;9.25;6.00;;;;;19.28;58.42;100518.06;5007917;28;45502;-84
2021/06/06 21:20:41;;;;;;;;;7.50;6.25;;;;;19.23;58.02;100520.09;5012697;28;45465;-83
2021/06/06 21:23:14;;;;;;;;;6.25;6.00;;;;;19.23;57.91;100514.72;5009659;28;46444;-84
2021/06/06 21:25:49;;;;;;;;;9.00;5.75;;;;;19.22;58.11;100526.44;5017311;28;45715;-85
2021/06/06 21:28:39;;;;;;;;;8.25;7.00;;;;;19.19;58.21;100522.06;5016053;28;45449;-84
2021/06/06 21:31:07;;;;;;;;;7.00;5.25;;;;;19.14;58.32;100531.28;5004994;28;45568;-83
2021/06/06 21:33:34;;;;;;;;;8.50;8.00;;;;;19.04;58.28;100522.69;5041702;28;46253;-78
2021/06/06 21:36:00;;;;;;;;;6.75;6.25;;;;;19.08;58.57;100528.84;5031624;28;45454;-79
2021/06/06 21:38:26;;;;;;;;;5.00;5.00;;;;;19.05;58.34;100527.16;5003489;28;46575;-79
2021/06/06 21:40:52;;;;;;;;;9.75;7.00;;;;;18.95;58.35;100510.47;4999400;28;45604;-84
2021/06/06 21:43:18;;;;;;;;;8.00;6.50;;;;;18.97;58.43;100529.31;5013611;28;45501;-85
2021/06/06 21:45:44;;;;;;;;;6.00;6.00;;;;;18.91;58.53;100519.63;5007912;28;45204;-84
2021/06/06 21:48:12;;;;;;;;;7.00;5.50;;;;;18.91;58.58;100522.31;5032220;28;45340;-83
2021/06/06 21:50:39;;;;;;;;;9.25;8.50;;;;;18.83;58.44;100528.03;5013968;28;45375;-83
2021/06/06 21:53:06;;;;;;;;;8.25;7.00;;;;;18.83;59.08;100532.56;5011633;28;45509;-84
2021/06/06 21:55:32;;;;;;;;;11.00;7.00;;;;;18.79;59.21;100536.31;4998450;28;45393;-83
2021/06/06 21:57:58;;;;;;;;;7.50;6.25;;;;;18.74;58.74;100531.09;5004868;28;45662;-84
2021/06/06 22:00:31;;;;;;;;;7.00;7.00;;;;;18.74;59.14;100540.06;5004853;28;45390;-80
2021/06/06 22:02:57;;;;;;;;;10.75;7.00;;;;;18.68;59.06;100529.53;5006507;28;46471;-84
2021/06/06 22:05:22;;;;;;;;;8.00;7.00;;;;;18.57;59.48;100513.78;5008813;28;45567;-84
2021/06/06 22:07:49;;;;;;;;;6.25;6.25;;;;;18.61;59.43;100530.72;4995772;28;45527;-84
2021/06/06 22:10:16;;;;;;;;;7.50;6.00;;;;;18.64;59.21;100535.13;5010061;28;45485;-84
2021/06/06 22:12:42;;;;;;;;;7.25;6.75;;;;;18.61;59.33;100535.22;5011726;28;47259;-85
2021/06/06 22:15:10;;;;;;;;;10.50;6.25;;;;;18.56;59.55;100532.72;5036500;28;58728;-84
2021/06/06 22:17:36;;;;;;;;;7.50;7.50;;;;;18.49;59.51;100529.38;5016427;28;45953;-80
2021/06/06 22:20:39;;;;;;;;;6.00;6.00;;;;;18.50;59.49;100531.16;5038034;28;45509;-86
2021/06/06 22:23:42;;;;;;;;;7.50;6.75;;;;;18.45;59.66;100534.97;5013798;28;47411;-84
2021/06/06 22:26:48;;;;;;;;;7.50;7.00;;;;;18.43;59.90;100540.44;5009866;28;45409;-84
2021/06/06 22:29:51;;;;;;;;;6.50;5.25;;;;;18.39;59.68;100538.78;5015387;28;45354;-84
2021/06/06 22:32:54;;;;;;;;;6.25;5.50;;;;;18.35;60.11;100535.34;5010237;28;45725;-84
2021/06/06 22:35:57;;;;;;;;;7.75;6.25;;;;;18.32;60.22;100542.66;5014126;28;45479;-83
2021/06/06 22:38:59;;;;;;;;;7.75;6.75;;;;;18.26;60.14;100523.09;5014702;28;45878;-86
2021/06/06 22:42:02;;;;;;;;;6.00;5.25;;;;;18.23;60.51;100538.50;5014965;28;45419;-84
2021/06/06 22:45:05;;;;;;;;;8.00;5.00;;;;;18.18;60.46;100530.59;5034565;28;45927;-86
2021/06/06 22:48:08;;;;;;;;;6.00;6.00;;;;;18.15;61.19;100535.22;5009699;28;46385;-85
2021/06/06 22:51:10;;;;;;;;;6.75;5.00;;;;;18.10;60.90;100538.97;5009137;28;46011;-85
2021/06/06 22:54:13;;;;;;;;;9.25;6.00;;;;;18.05;61.14;100532.00;5006968;28;45451;-85
2021/06/06 22:57:16;;;;;;;;;8.25;6.25;;;;;18.02;61.13;100529.44;5013686;28;45904;-82
2021/06/06 23:00:19;;;;;;;;;5.75;5.75;;;;;17.99;61.24;100532.25;5040141;28;45608;-86
2021/06/06 23:03:22;;;;;;;;;5.25;5.25;;;;;17.94;61.43;100527.00;5004583;28;45345;-85
2021/06/06 23:06:25;;;;;;;;;6.00;6.00;;;;;17.90;61.49;100522.66;5009256;28;45478;-83
2021/06/06 23:09:28;;;;;;;;;7.00;5.50;;;;;17.89;61.93;100526.28;5012819;28;45536;-84
2021/06/06 23:12:30;;;;;;;;;4.75;4.75;;;;;17.85;61.71;100527.34;5008067;28;45562;-85
2021/06/06 23:14:55;;;;;;;;;9.00;5.75;;;;;17.80;62.27;100528.38;5008998;28;45783;-84
2021/06/06 23:17:21;;;;;;;;;5.00;5.00;;;;;17.72;62.43;100511.66;5024239;28;51040;-84
2021/06/06 23:19:48;;;;;;;;;9.75;5.00;;;;;17.76;61.94;100523.19;5035797;28;45839;-84
2021/06/06 23:22:21;;;;;;;;;5.00;5.00;;;;;17.71;62.23;100526.03;5011945;28;47322;-82
2021/06/06 23:24:52;;;;;;;;;5.00;5.00;;;;;17.70;62.02;100524.28;5044142;28;45902;-85
2021/06/06 23:27:19;;;;;;;;;5.25;5.25;;;;;17.69;62.56;100527.03;5009299;28;45404;-86
2021/06/06 23:29:48;;;;;;;;;7.00;5.50;;;;;17.68;62.09;100518.06;5008333;28;45761;-85
2021/06/06 23:32:15;;;;;;;;;5.25;5.00;;;;;17.69;62.05;100517.13;5006595;28;45496;-86
2021/06/06 23:34:40;;;;;;;;;7.00;6.25;;;;;17.70;62.25;100518.03;5009458;28;45927;-85
2021/06/06 23:37:06;;;;;;;;;6.50;5.50;;;;;17.71;62.39;100515.28;5041117;28;45449;-83
2021/06/06 23:39:34;;;;;;;;;6.00;4.75;;;;;17.68;61.85;100515.38;5015653;28;45566;-81
2021/06/06 23:41:59;;;;;;;;;7.00;5.25;;;;;17.71;62.01;100512.59;5013172;28;47617;-84
2021/06/06 23:44:25;;;;;;;;;7.50;5.25;;;;;17.55;62.13;100488.06;5045517;28;45691;-85
2021/06/06 23:46:51;;;;;;;;;5.25;5.00;;;;;17.58;62.12;100497.81;5039513;28;45607;-85
2021/06/06 23:49:16;;;;;;;;;7.25;6.25;;;;;17.65;62.08;100502.94;5026407;28;45472;-84
2021/06/06 23:51:43;;;;;;;;;5.00;5.00;;;;;17.63;62.17;100502.09;5020054;28;46418;-84
2021/06/06 23:54:10;;;;;;;;;6.00;5.00;;;;;17.62;62.21;100505.72;5031601;28;45468;-85
2021/06/06 23:56:36;;;;;;;;;6.75;6.00;;;;;17.57;62.37;100496.06;5007144;28;46687;-83
2021/06/06 23:59:02;;;;;;;;;5.00;3.75;;;;;17.57;62.33;100506.81;4995797;28;45525;-83
